Time;durP1;ratioP1;P1;durP2;ratioP2;P2;SDS_P1;SDS_P2;PMS_P1;PMS_P2;Temp;Humidity;BMP_temperature;BMP_pressure;BME280_temperature;BME280_humidity;BME280_pressure;Samples;Min_cycle;Max_cycle;Signal;HPM_P1;HPM_P2
2023/09/26 00:00:21;;;;;;;12.55;5.85;;;17.60;99.90;;;;;;4249829;27;20039;-54
2023/09/26 00:02:24;;;;;;;8.70;4.57;;;17.50;99.90;;;;;;4232435;28;20039;-53
2023/09/26 00:04:27;;;;;;;10.30;4.88;;;17.50;99.90;;;;;;4250102;27;20043;-55
2023/09/26 00:06:31;;;;;;;8.95;4.97;;;17.50;99.90;;;;;;4250075;27;20337;-54
2023/09/26 00:08:33;;;;;;;8.63;4.43;;;17.50;99.90;;;;;;4249775;27;20503;-55
2023/09/26 00:10:35;;;;;;;8.93;4.78;;;17.60;99.90;;;;;;4249791;27;20386;-55
2023/09/26 00:12:38;;;;;;;11.10;4.90;;;17.50;99.90;;;;;;4249702;27;20047;-54
2023/09/26 00:14:40;;;;;;;10.10;4.55;;;17.50;99.90;;;;;;4249757;27;20054;-54
2023/09/26 00:16:42;;;;;;;6.25;4.00;;;17.50;99.90;;;;;;4249510;27;20069;-55
2023/09/26 00:18:44;;;;;;;10.93;5.53;;;17.50;99.90;;;;;;4249739;27;20126;-53
2023/09/26 00:20:47;;;;;;;8.38;4.43;;;17.50;99.90;;;;;;4249677;27;20047;-55
2023/09/26 00:22:50;;;;;;;9.90;4.47;;;17.50;99.90;;;;;;4249542;27;20049;-54
2023/09/26 00:24:52;;;;;;;10.00;4.68;;;17.50;99.90;;;;;;4249457;27;20039;-54
2023/09/26 00:26:55;;;;;;;9.88;4.85;;;17.50;99.90;;;;;;4248807;27;20045;-55
2023/09/26 00:28:57;;;;;;;9.80;4.95;;;17.50;99.90;;;;;;4249805;27;20131;-55
2023/09/26 00:31:04;;;;;;;8.52;4.70;;;17.50;99.90;;;;;;4249844;27;20448;-54
2023/09/26 00:33:08;;;;;;;7.18;4.20;;;17.50;99.90;;;;;;4249820;27;20039;-54
2023/09/26 00:35:11;;;;;;;9.10;4.50;;;17.60;99.90;;;;;;4249473;27;20516;-56
2023/09/26 00:37:14;;;;;;;10.10;5.25;;;17.60;99.90;;;;;;4249476;27;20062;-55
2023/09/26 00:39:18;;;;;;;7.38;3.83;;;17.60;99.90;;;;;;4231212;28;20061;-55
2023/09/26 00:41:20;;;;;;;7.30;4.05;;;17.60;99.90;;;;;;4249360;27;20504;-55
2023/09/26 00:43:22;;;;;;;7.72;4.32;;;17.70;99.90;;;;;;4249496;27;20118;-52
2023/09/26 00:45:24;;;;;;;8.25;4.05;;;17.70;99.90;;;;;;4249073;27;20115;-52
2023/09/26 00:47:26;;;;;;;10.43;4.72;;;17.70;99.90;;;;;;4249305;27;20047;-52
2023/09/26 00:49:32;;;;;;;11.25;5.03;;;17.70;99.90;;;;;;4249262;27;20445;-52
2023/09/26 00:51:36;;;;;;;12.60;4.32;;;17.70;99.90;;;;;;4249310;27;20137;-53
2023/09/26 00:53:39;;;;;;;6.38;3.92;;;17.70;99.90;;;;;;4230844;28;20184;-53
2023/09/26 00:55:43;;;;;;;12.13;4.82;;;17.70;99.90;;;;;;4249153;27;20047;-52
2023/09/26 00:57:46;;;;;;;9.30;4.07;;;17.70;99.90;;;;;;4249148;27;20051;-52
2023/09/26 00:59:48;;;;;;;10.27;4.55;;;17.60;99.90;;;;;;4248653;27;20457;-53
2023/09/26 01:01:51;;;;;;;8.80;4.32;;;17.60;99.90;;;;;;4249223;27;20071;-52
2023/09/26 01:03:54;;;;;;;8.60;3.85;;;17.70;99.90;;;;;;4248731;27;20051;-52
2023/09/26 01:05:58;;;;;;;12.38;4.65;;;17.60;99.90;;;;;;4248894;27;20043;-53
2023/09/26 01:08:01;;;;;;;9.07;4.18;;;17.60;99.90;;;;;;4230695;28;20040;-53
2023/09/26 01:10:07;;;;;;;9.80;4.32;;;17.60;99.90;;;;;;4248794;27;20067;-52
2023/09/26 01:12:11;;;;;;;10.43;4.30;;;17.50;99.90;;;;;;4248924;27;20046;-52
2023/09/26 01:14:13;;;;;;;11.90;4.32;;;17.50;99.90;;;;;;4248712;27;20331;-52
2023/09/26 01:16:17;;;;;;;8.27;4.38;;;17.50;99.90;;;;;;4248821;27;20126;-53
2023/09/26 01:18:23;;;;;;;12.18;4.60;;;17.50;99.90;;;;;;4248824;27;20078;-52
2023/09/26 01:20:25;;;;;;;7.90;4.20;;;17.50;99.90;;;;;;4248937;27;20043;-52
2023/09/26 01:22:30;;;;;;;9.38;4.25;;;17.50;99.90;;;;;;4248514;27;20054;-53
2023/09/26 01:24:35;;;;;;;6.82;4.07;;;17.50;99.90;;;;;;4248655;27;20039;-52
2023/09/26 01:26:37;;;;;;;6.43;3.80;;;17.50;99.90;;;;;;4248847;27;20051;-52
2023/09/26 01:28:40;;;;;;;9.50;4.40;;;17.50;99.90;;;;;;4248225;27;20055;-52
2023/09/26 01:30:42;;;;;;;8.05;4.13;;;17.50;99.90;;;;;;4248421;27;20067;-52
2023/09/26 01:32:46;;;;;;;10.82;4.40;;;17.50;99.90;;;;;;4248654;27;20047;-52
2023/09/26 01:34:48;;;;;;;11.80;4.97;;;17.60;99.90;;;;;;4248361;27;20481;-51
2023/09/26 01:36:50;;;;;;;7.60;4.55;;;17.60;99.90;;;;;;4248526;27;20093;-53
2023/09/26 01:38:53;;;;;;;10.05;4.55;;;17.60;99.90;;;;;;4247974;27;20071;-51
2023/09/26 01:40:56;;;;;;;8.90;4.28;;;17.50;99.90;;;;;;4248324;27;20039;-52
2023/09/26 01:42:59;;;;;;;10.07;5.03;;;17.50;99.90;;;;;;4248023;27;20039;-53
2023/09/26 01:45:01;;;;;;;9.70;4.60;;;17.60;99.90;;;;;;4248164;27;20039;-52
2023/09/26 01:47:03;;;;;;;8.98;4.43;;;17.60;99.90;;;;;;4248247;27;20108;-53
2023/09/26 01:49:05;;;;;;;8.90;4.30;;;17.60;99.90;;;;;;4247873;27;20047;-52
2023/09/26 01:51:09;;;;;;;8.43;4.00;;;17.60;99.90;;;;;;4248398;27;20081;-52
2023/09/26 01:53:13;;;;;;;8.98;4.18;;;17.50;99.90;;;;;;4248323;27;20126;-52
2023/09/26 01:55:17;;;;;;;11.65;4.43;;;17.60;99.90;;;;;;4230360;28;20522;-53
2023/09/26 01:57:21;;;;;;;7.50;3.80;;;17.50;99.90;;;;;;4247886;27;20070;-52
2023/09/26 01:59:23;;;;;;;7.47;3.95;;;17.50;99.90;;;;;;4248256;27;20130;-53
2023/09/26 02:01:25;;;;;;;7.35;3.42;;;17.50;99.90;;;;;;4248214;27;20046;-53
2023/09/26 02:03:27;;;;;;;7.07;3.92;;;17.50;99.90;;;;;;4247845;27;20047;-53
2023/09/26 02:05:29;;;;;;;9.52;3.95;;;17.50;99.90;;;;;;4248045;27;20043;-52
2023/09/26 02:07:31;;;;;;;9.63;4.20;;;17.50;99.90;;;;;;4229770;28;20134;-52
2023/09/26 02:09:33;;;;;;;7.32;3.70;;;17.40;99.90;;;;;;4248109;27;20452;-53
2023/09/26 02:11:35;;;;;;;6.90;3.88;;;17.40;99.90;;;;;;4247722;27;20495;-52
2023/09/26 02:13:39;;;;;;;6.10;3.58;;;17.40;99.90;;;;;;4248006;27;20151;-53
2023/09/26 02:15:41;;;;;;;5.65;3.72;;;17.40;99.90;;;;;;4229409;28;20048;-52
2023/09/26 02:17:44;;;;;;;6.47;3.88;;;17.40;99.90;;;;;;4247667;27;20047;-52
2023/09/26 02:19:46;;;;;;;7.90;3.80;;;17.40;99.90;;;;;;4247702;27;20046;-52
2023/09/26 02:21:48;;;;;;;11.43;3.63;;;17.40;99.90;;;;;;4229476;28;20083;-52
2023/09/26 02:23:50;;;;;;;7.55;3.65;;;17.30;99.90;;;;;;4247734;27;20535;-52
2023/09/26 02:25:53;;;;;;;8.57;4.47;;;17.30;99.90;;;;;;4247310;27;20039;-52
2023/09/26 02:27:55;;;;;;;11.18;4.43;;;17.30;99.90;;;;;;4247923;27;20400;-53
2023/09/26 02:29:58;;;;;;;8.77;4.05;;;17.40;99.90;;;;;;4247565;27;20043;-52
2023/09/26 02:32:01;;;;;;;7.43;3.42;;;17.30;99.90;;;;;;4247730;27;20047;-53
2023/09/26 02:34:03;;;;;;;7.65;3.45;;;17.40;99.90;;;;;;4247796;27;20047;-50
2023/09/26 02:36:06;;;;;;;9.70;4.32;;;17.30;99.90;;;;;;4247684;27;20054;-50
2023/09/26 02:38:09;;;;;;;8.30;3.97;;;17.30;99.90;;;;;;4247485;27;20065;-50
2023/09/26 02:40:12;;;;;;;7.65;4.05;;;17.30;99.90;;;;;;4247261;27;20120;-52
2023/09/26 02:42:14;;;;;;;5.28;3.10;;;17.20;99.90;;;;;;4247853;27;20070;-51
2023/09/26 02:44:16;;;;;;;6.18;3.70;;;17.20;99.90;;;;;;4247514;27;20053;-53
2023/09/26 02:46:20;;;;;;;6.90;3.72;;;17.20;99.90;;;;;;4247340;27;20047;-53
2023/09/26 02:48:22;;;;;;;9.88;3.80;;;17.30;99.90;;;;;;4247536;27;20122;-53
2023/09/26 02:50:24;;;;;;;7.95;3.80;;;17.30;99.90;;;;;;4246950;27;20138;-51
2023/09/26 02:52:26;;;;;;;6.50;3.50;;;17.30;99.90;;;;;;4247669;27;20043;-51
2023/09/26 02:54:29;;;;;;;11.30;4.28;;;17.30;99.90;;;;;;4247474;28;20854;-51
2023/09/26 02:56:31;;;;;;;7.07;3.45;;;17.30;99.90;;;;;;4247519;28;20089;-51
2023/09/26 02:58:35;;;;;;;7.43;3.25;;;17.30;99.90;;;;;;4247333;28;20047;-51
2023/09/26 03:00:40;;;;;;;7.82;3.17;;;17.30;99.90;;;;;;4247620;28;20118;-51
2023/09/26 03:02:45;;;;;;;7.75;3.60;;;17.30;99.90;;;;;;4247538;28;20127;-52
2023/09/26 03:04:48;;;;;;;5.70;3.15;;;17.40;99.90;;;;;;4247613;28;20158;-57
2023/09/26 03:06:50;;;;;;;4.55;2.78;;;17.40;99.90;;;;;;4248333;28;20047;-51
2023/09/26 03:08:53;;;;;;;8.80;3.53;;;17.40;99.90;;;;;;4249375;28;20039;-50
2023/09/26 03:10:58;;;;;;;4.43;3.05;;;17.30;99.90;;;;;;4231472;28;20062;-54
2023/09/26 03:13:00;;;;;;;6.20;2.78;;;17.40;99.90;;;;;;4248432;28;20076;-51
2023/09/26 03:15:03;;;;;;;10.73;2.97;;;17.40;99.90;;;;;;4247333;28;20112;-54
2023/09/26 03:17:06;;;;;;;5.60;2.83;;;17.40;99.90;;;;;;4247192;28;20453;-50
2023/09/26 03:19:10;;;;;;;8.13;3.08;;;17.40;99.90;;;;;;4229085;28;20048;-51
2023/09/26 03:21:12;;;;;;;8.13;3.92;;;17.30;99.90;;;;;;4247323;28;20059;-51
2023/09/26 03:23:14;;;;;;;10.60;3.53;;;17.30;99.90;;;;;;4228851;28;20513;-51
2023/09/26 03:25:17;;;;;;;12.85;4.68;;;17.30;99.90;;;;;;4247147;28;20047;-50
2023/09/26 03:27:19;;;;;;;12.20;4.68;;;17.30;99.90;;;;;;4247326;28;20063;-50
2023/09/26 03:29:21;;;;;;;8.88;4.43;;;17.30;99.90;;;;;;4247119;28;20049;-51
2023/09/26 03:31:23;;;;;;;12.63;4.95;;;17.30;99.90;;;;;;4247229;28;20148;-51
2023/09/26 03:33:26;;;;;;;10.65;5.45;;;17.20;99.90;;;;;;4247254;28;20428;-51
2023/09/26 03:35:30;;;;;;;8.98;4.10;;;17.20;99.90;;;;;;4247261;28;20118;-50
2023/09/26 03:37:32;;;;;;;7.53;4.28;;;17.20;99.90;;;;;;4246914;28;20111;-58
2023/09/26 03:39:34;;;;;;;12.90;4.90;;;17.20;99.90;;;;;;4247266;28;20043;-51
2023/09/26 03:41:37;;;;;;;9.45;4.07;;;17.20;99.90;;;;;;4247234;28;20044;-51
2023/09/26 03:43:39;;;;;;;9.02;3.75;;;17.10;99.90;;;;;;4247330;28;20044;-51
2023/09/26 03:45:41;;;;;;;8.48;4.15;;;17.10;99.90;;;;;;4247218;28;20441;-50
2023/09/26 03:47:43;;;;;;;9.75;4.47;;;17.10;99.90;;;;;;4246881;28;20456;-51
2023/09/26 03:49:45;;;;;;;13.45;5.18;;;17.10;99.90;;;;;;4246861;28;20061;-51
2023/09/26 03:51:49;;;;;;;9.68;4.93;;;17.00;99.90;;;;;;4247105;28;20126;-57
2023/09/26 03:53:51;;;;;;;12.20;4.80;;;17.00;99.90;;;;;;4246843;28;20100;-51
2023/09/26 03:55:54;;;;;;;8.57;4.63;;;17.00;99.90;;;;;;4247189;28;20481;-50
2023/09/26 03:57:56;;;;;;;8.65;4.28;;;17.00;99.90;;;;;;4247024;28;20527;-55
2023/09/26 03:59:59;;;;;;;9.20;4.50;;;17.00;99.90;;;;;;4246986;28;20043;-50
2023/09/26 04:02:01;;;;;;;11.98;4.50;;;17.00;99.90;;;;;;4247913;27;20084;-51
2023/09/26 04:04:04;;;;;;;9.85;4.28;;;16.90;99.90;;;;;;4250146;27;20392;-50
2023/09/26 04:06:06;;;;;;;8.65;4.55;;;16.90;99.90;;;;;;4250156;27;20102;-50
2023/09/26 04:08:09;;;;;;;11.60;4.75;;;16.90;99.90;;;;;;4249763;27;20092;-51
2023/09/26 04:10:13;;;;;;;10.82;5.03;;;16.90;99.90;;;;;;4250084;27;20082;-51
2023/09/26 04:12:15;;;;;;;8.48;4.20;;;16.90;99.90;;;;;;4249997;27;20092;-50
2023/09/26 04:14:17;;;;;;;8.23;4.13;;;16.90;99.90;;;;;;4231477;28;20047;-51
2023/09/26 04:16:19;;;;;;;6.88;3.45;;;16.90;99.90;;;;;;4249540;27;20047;-51
2023/09/26 04:18:22;;;;;;;10.32;4.78;;;16.90;99.90;;;;;;4249648;27;20043;-50
2023/09/26 04:20:24;;;;;;;9.73;4.72;;;16.90;99.90;;;;;;4249864;27;20043;-51
2023/09/26 04:22:38;;;;;;;11.50;4.57;;;16.90;99.90;;;;;;4249395;27;20450;-51
2023/09/26 04:24:42;;;;;;;10.90;4.60;;;16.90;99.90;;;;;;4249714;27;20047;-52
2023/09/26 04:26:44;;;;;;;9.18;4.07;;;16.90;99.90;;;;;;4250170;27;20058;-51
2023/09/26 04:28:46;;;;;;;7.30;3.92;;;16.90;99.90;;;;;;4251084;27;20078;-58
2023/09/26 04:30:48;;;;;;;7.95;4.07;;;16.80;99.90;;;;;;4232446;28;20570;-55
2023/09/26 04:32:50;;;;;;;9.57;3.78;;;16.90;99.90;;;;;;4232783;28;20051;-57
2023/09/26 04:34:53;;;;;;;9.70;3.92;;;16.90;99.90;;;;;;4251100;27;20495;-51
2023/09/26 04:36:55;;;;;;;8.10;3.70;;;16.80;99.90;;;;;;4251231;27;20523;-53
2023/09/26 04:38:58;;;;;;;10.13;4.30;;;16.80;99.90;;;;;;4232946;28;20088;-54
2023/09/26 04:41:03;;;;;;;7.43;3.53;;;16.80;99.90;;;;;;4251000;27;20408;-52
2023/09/26 04:43:05;;;;;;;8.88;3.72;;;16.80;99.90;;;;;;4249740;27;20097;-50
2023/09/26 04:45:08;;;;;;;7.88;3.90;;;16.80;99.90;;;;;;4249893;27;20047;-51
2023/09/26 04:47:10;;;;;;;7.38;3.70;;;16.70;99.90;;;;;;4249387;27;20453;-53
2023/09/26 04:49:12;;;;;;;8.93;3.60;;;16.70;99.90;;;;;;4249328;27;20532;-52
2023/09/26 04:51:15;;;;;;;7.20;3.53;;;16.70;99.90;;;;;;4249139;27;20111;-53
2023/09/26 04:53:17;;;;;;;7.50;3.90;;;16.70;99.90;;;;;;4249227;27;20039;-53
2023/09/26 04:55:19;;;;;;;9.52;4.10;;;16.70;99.90;;;;;;4249201;27;20039;-53
2023/09/26 04:57:23;;;;;;;10.07;3.63;;;16.70;99.90;;;;;;4248921;27;20064;-53
2023/09/26 04:59:27;;;;;;;7.10;3.40;;;16.60;99.90;;;;;;4249451;27;20039;-53
2023/09/26 05:01:29;;;;;;;7.22;3.35;;;16.60;99.90;;;;;;4249187;27;20096;-54
2023/09/26 05:03:31;;;;;;;7.43;3.50;;;16.60;99.90;;;;;;4230643;28;20130;-53
2023/09/26 05:05:33;;;;;;;9.48;3.88;;;16.60;99.90;;;;;;4248992;27;20473;-54
2023/09/26 05:07:36;;;;;;;9.98;3.55;;;16.60;99.90;;;;;;4230736;28;20134;-53
2023/09/26 05:09:38;;;;;;;6.18;3.20;;;16.60;99.90;;;;;;4248817;27;20097;-53
2023/09/26 05:11:40;;;;;;;7.75;3.33;;;16.60;99.90;;;;;;4249029;27;20413;-53
2023/09/26 05:13:44;;;;;;;9.30;3.70;;;16.60;99.90;;;;;;4248971;27;20074;-53
2023/09/26 05:15:46;;;;;;;9.25;4.10;;;16.60;99.90;;;;;;4249041;27;20043;-54
2023/09/26 05:17:52;;;;;;;8.63;3.90;;;16.60;99.90;;;;;;4248834;27;20545;-54
2023/09/26 05:19:54;;;;;;;14.48;4.55;;;16.60;99.90;;;;;;4248783;27;20047;-53
2023/09/26 05:21:56;;;;;;;10.63;3.92;;;16.60;99.90;;;;;;4248704;27;20047;-53
2023/09/26 05:23:58;;;;;;;11.07;3.50;;;16.60;99.90;;;;;;4230673;28;20043;-53
2023/09/26 05:26:05;;;;;;;11.35;4.57;;;16.60;99.90;;;;;;4248695;27;20043;-54
2023/09/26 05:28:07;;;;;;;13.20;4.03;;;16.60;99.90;;;;;;4248951;27;20071;-53
2023/09/26 05:30:12;;;;;;;7.10;3.50;;;16.60;99.90;;;;;;4248637;27;20043;-53
2023/09/26 05:32:14;;;;;;;14.07;4.22;;;16.60;99.90;;;;;;4248772;27;20043;-53
2023/09/26 05:34:16;;;;;;;8.38;3.95;;;16.60;99.90;;;;;;4248446;27;20129;-53
2023/09/26 05:36:18;;;;;;;6.30;3.17;;;16.60;99.90;;;;;;4248942;27;20043;-54
2023/09/26 05:38:21;;;;;;;9.10;3.78;;;16.60;99.90;;;;;;4248528;27;20512;-53
2023/09/26 05:40:24;;;;;;;5.13;3.08;;;16.60;99.90;;;;;;4248722;27;20061;-54
2023/09/26 05:42:26;;;;;;;15.95;4.45;;;16.60;99.90;;;;;;4248680;27;20058;-53
2023/09/26 05:44:28;;;;;;;11.88;4.15;;;16.60;99.90;;;;;;4248606;27;20126;-52
2023/09/26 05:46:32;;;;;;;11.52;3.83;;;16.60;99.90;;;;;;4252009;27;20047;-58
2023/09/26 05:48:34;;;;;;;10.80;3.53;;;16.60;99.90;;;;;;4250551;27;20043;-62
2023/09/26 05:50:36;;;;;;;13.68;4.43;;;16.60;99.90;;;;;;4251618;27;20059;-65
2023/09/26 05:52:38;;;;;;;15.32;4.88;;;16.60;99.90;;;;;;4233688;28;20436;-59
2023/09/26 05:54:40;;;;;;;13.32;4.25;;;16.70;99.90;;;;;;4252503;27;20058;-52
2023/09/26 05:56:44;;;;;;;9.13;3.67;;;16.70;99.90;;;;;;4251799;27;20054;-52
2023/09/26 05:58:49;;;;;;;12.48;4.55;;;16.70;99.90;;;;;;4249882;27;20053;-54
2023/09/26 06:00:52;;;;;;;14.45;4.78;;;16.70;99.90;;;;;;4250837;27;20039;-53
2023/09/26 06:02:55;;;;;;;12.77;4.03;;;16.70;99.90;;;;;;4250412;27;20047;-55
2023/09/26 06:04:57;;;;;;;9.43;4.25;;;16.60;99.90;;;;;;4251218;27;20058;-56
2023/09/26 06:06:59;;;;;;;13.80;4.05;;;16.70;99.90;;;;;;4250458;27;20450;-54
2023/09/26 06:09:02;;;;;;;17.85;4.65;;;16.70;99.90;;;;;;4250509;27;20047;-53
2023/09/26 06:11:04;;;;;;;11.43;4.50;;;16.70;99.90;;;;;;4250395;27;20223;-54
2023/09/26 06:13:06;;;;;;;11.68;4.60;;;16.80;99.90;;;;;;4249652;27;20076;-53
2023/09/26 06:15:09;;;;;;;9.85;3.85;;;16.80;99.90;;;;;;4250936;27;20043;-53
2023/09/26 06:17:11;;;;;;;9.32;3.78;;;16.80;99.90;;;;;;4249151;27;20047;-59
2023/09/26 06:19:15;;;;;;;12.55;3.25;;;16.90;99.90;;;;;;4249940;27;20396;-52
2023/09/26 06:21:18;;;;;;;14.10;4.50;;;16.80;99.90;;;;;;4250585;27;20059;-53
2023/09/26 06:23:21;;;;;;;13.68;4.50;;;16.90;99.90;;;;;;4250473;27;20038;-55
2023/09/26 06:25:23;;;;;;;11.77;4.75;;;16.90;99.90;;;;;;4250106;27;20108;-53
2023/09/26 06:27:26;;;;;;;17.90;5.72;;;17.00;99.90;;;;;;4250314;27;20053;-53
2023/09/26 06:29:28;;;;;;;11.93;4.35;;;17.00;99.90;;;;;;4250224;27;20076;-55
2023/09/26 06:31:30;;;;;;;14.15;4.93;;;17.00;99.90;;;;;;4250895;27;20130;-59
2023/09/26 06:33:33;;;;;;;12.23;4.15;;;17.10;99.90;;;;;;4251086;27;20054;-53
2023/09/26 06:35:36;;;;;;;11.88;4.38;;;17.10;99.90;;;;;;4249739;27;20047;-52
2023/09/26 06:37:39;;;;;;;12.23;4.50;;;17.10;99.90;;;;;;4248255;27;20051;-54
2023/09/26 06:39:41;;;;;;;9.02;4.15;;;17.10;99.90;;;;;;4248097;27;20039;-53
2023/09/26 06:41:43;;;;;;;15.10;4.00;;;17.10;99.90;;;;;;4248951;27;20043;-54
2023/09/26 06:43:46;;;;;;;13.02;4.68;;;17.20;99.90;;;;;;4248928;27;20043;-53
2023/09/26 06:45:48;;;;;;;12.60;4.15;;;17.20;99.90;;;;;;4248484;27;20039;-54
2023/09/26 06:47:50;;;;;;;12.93;4.00;;;17.20;99.90;;;;;;4247853;27;20082;-54
2023/09/26 06:49:52;;;;;;;9.05;4.20;;;17.30;99.90;;;;;;4248248;27;20051;-54
2023/09/26 06:51:55;;;;;;;10.02;4.55;;;17.30;99.90;;;;;;4248259;27;20047;-53
2023/09/26 06:53:58;;;;;;;10.60;3.97;;;17.40;99.90;;;;;;4247877;27;20054;-53
2023/09/26 06:56:01;;;;;;;9.35;4.35;;;17.40;99.90;;;;;;4247879;28;20051;-53
2023/09/26 06:58:03;;;;;;;14.98;4.47;;;17.40;99.90;;;;;;4248464;28;20442;-53
2023/09/26 07:00:16;;;;;;;8.25;3.90;;;17.50;99.90;;;;;;4229744;28;20092;-53
2023/09/26 07:02:19;;;;;;;14.10;5.40;;;17.50;99.90;;;;;;4247130;28;20130;-53
2023/09/26 07:04:22;;;;;;;10.40;4.22;;;17.60;99.90;;;;;;4229324;28;20039;-53
2023/09/26 07:06:25;;;;;;;10.40;4.57;;;17.60;99.90;;;;;;4247315;28;20047;-54
2023/09/26 07:08:29;;;;;;;9.90;4.40;;;17.70;99.80;;;;;;4247560;28;20039;-54
2023/09/26 07:10:37;;;;;;;8.23;4.20;;;17.70;99.60;;;;;;4247792;28;20088;-50
2023/09/26 07:12:39;;;;;;;14.35;4.78;;;17.90;99.10;;;;;;4247281;28;20433;-51
2023/09/26 07:14:42;;;;;;;11.73;4.93;;;18.00;99.10;;;;;;4247600;28;20096;-52
2023/09/26 07:16:46;;;;;;;8.48;4.20;;;18.10;99.00;;;;;;4247052;28;20439;-52
2023/09/26 07:18:50;;;;;;;12.50;4.85;;;18.10;98.60;;;;;;4247557;28;20058;-54
2023/09/26 07:20:53;;;;;;;9.07;4.05;;;18.20;98.90;;;;;;4246490;28;20069;-53
2023/09/26 07:22:55;;;;;;;9.98;5.20;;;18.40;98.60;;;;;;4247257;28;20122;-53
2023/09/26 07:25:00;;;;;;;10.55;4.95;;;18.50;98.10;;;;;;4229127;28;20052;-54
2023/09/26 07:27:02;;;;;;;13.35;4.70;;;18.50;97.70;;;;;;4247251;28;20043;-54
2023/09/26 07:29:04;;;;;;;11.20;5.13;;;18.60;97.30;;;;;;4247091;28;20046;-53
2023/09/26 07:31:08;;;;;;;12.80;5.20;;;18.70;97.70;;;;;;4246854;28;20209;-54
2023/09/26 07:33:11;;;;;;;10.37;3.93;;;18.70;97.40;;;;;;4247492;28;20043;-53
2023/09/26 07:35:13;;;;;;;9.85;4.38;;;18.70;97.30;;;;;;4247144;28;20514;-53
2023/09/26 07:37:16;;;;;;;7.55;3.97;;;18.80;97.30;;;;;;4248696;27;20134;-53
2023/09/26 07:39:18;;;;;;;14.52;4.63;;;18.80;97.60;;;;;;4250430;27;20047;-54
2023/09/26 07:41:21;;;;;;;11.20;4.32;;;18.80;97.40;;;;;;4250514;27;20123;-52
2023/09/26 07:43:29;;;;;;;10.20;4.88;;;18.80;97.30;;;;;;4250035;27;20062;-56
2023/09/26 07:45:31;;;;;;;11.15;4.53;;;18.80;97.40;;;;;;4250332;27;20105;-51
2023/09/26 07:47:33;;;;;;;15.68;4.25;;;18.80;97.30;;;;;;4232197;28;20425;-51
2023/09/26 07:49:35;;;;;;;11.93;4.22;;;18.90;97.20;;;;;;4249960;27;20043;-52
2023/09/26 07:51:38;;;;;;;14.20;4.90;;;18.90;97.40;;;;;;4250356;27;20051;-51
2023/09/26 07:53:40;;;;;;;12.77;5.15;;;18.90;97.70;;;;;;4250338;27;20065;-51
2023/09/26 07:55:42;;;;;;;16.75;5.00;;;18.90;97.40;;;;;;4250241;27;20051;-51
2023/09/26 07:57:46;;;;;;;11.65;4.85;;;18.90;97.40;;;;;;4231737;28;20118;-50
2023/09/26 07:59:48;;;;;;;11.82;4.80;;;18.90;97.10;;;;;;4249673;27;20065;-52
2023/09/26 08:01:50;;;;;;;19.90;5.18;;;18.90;97.50;;;;;;4250156;27;20047;-51
2023/09/26 08:03:52;;;;;;;10.80;4.68;;;18.90;97.10;;;;;;4250033;27;20047;-51
2023/09/26 08:05:58;;;;;;;11.00;4.40;;;18.90;97.00;;;;;;4231964;28;20070;-54
2023/09/26 08:08:04;;;;;;;18.75;5.63;;;18.90;97.30;;;;;;4231745;28;20642;-52
2023/09/26 08:10:06;;;;;;;;;;;18.90;96.80;;;;;;4250820;27;20550;-51
2023/09/26 08:12:09;;;;;;;10.73;4.45;;;18.90;97.10;;;;;;4250001;27;19930;-51
2023/09/26 08:14:12;;;;;;;19.13;4.97;;;18.90;97.20;;;;;;4249573;27;20039;-51
2023/09/26 08:16:14;;;;;;;22.92;5.35;;;19.00;97.10;;;;;;4249410;27;20110;-51
2023/09/26 08:18:16;;;;;;;18.95;5.22;;;19.00;96.60;;;;;;4249975;27;20055;-50
2023/09/26 08:20:19;;;;;;;15.60;5.07;;;19.10;96.60;;;;;;4250249;27;20099;-51
2023/09/26 08:22:21;;;;;;;15.07;4.95;;;19.10;96.70;;;;;;4249839;27;20043;-54
2023/09/26 08:24:23;;;;;;;12.75;4.97;;;19.10;97.10;;;;;;4249647;27;20069;-53
2023/09/26 08:26:25;;;;;;;16.13;5.57;;;19.20;97.00;;;;;;4249345;27;20043;-54
2023/09/26 08:28:28;;;;;;;16.75;5.53;;;19.20;96.80;;;;;;4249195;27;20130;-53
2023/09/26 08:30:33;;;;;;;18.95;4.90;;;19.30;96.90;;;;;;4249558;27;20043;-54
2023/09/26 08:32:35;;;;;;;14.38;4.88;;;19.40;97.00;;;;;;4249653;27;20051;-54
2023/09/26 08:34:37;;;;;;;15.20;4.97;;;19.40;96.90;;;;;;4249440;27;20047;-53
2023/09/26 08:36:40;;;;;;;10.75;4.40;;;19.40;96.70;;;;;;4249388;27;20504;-55
2023/09/26 08:38:42;;;;;;;15.63;5.53;;;19.50;96.40;;;;;;4249643;27;20099;-55
2023/09/26 08:40:45;;;;;;;15.27;5.18;;;19.50;96.20;;;;;;4249606;27;20050;-54
2023/09/26 08:42:49;;;;;;;13.50;4.97;;;19.50;96.50;;;;;;4249082;27;20049;-52
2023/09/26 08:44:52;;;;;;;13.40;5.28;;;19.50;96.10;;;;;;4249713;27;20481;-52
2023/09/26 08:46:57;;;;;;;13.15;4.90;;;19.50;96.10;;;;;;4249318;27;20040;-52
2023/09/26 08:49:01;;;;;;;8.98;4.57;;;19.60;96.10;;;;;;4248984;27;20051;-51
2023/09/26 08:51:04;;;;;;;14.23;4.40;;;19.50;96.30;;;;;;4249036;27;20051;-54
2023/09/26 08:53:06;;;;;;;12.25;4.53;;;19.60;96.20;;;;;;4249131;27;20503;-53
2023/09/26 08:55:09;;;;;;;12.15;4.50;;;19.60;96.30;;;;;;4249117;27;20050;-52
2023/09/26 08:57:12;;;;;;;17.73;3.90;;;19.60;96.20;;;;;;4249015;27;20069;-51
2023/09/26 08:59:18;;;;;;;16.65;4.65;;;19.70;96.30;;;;;;4249430;27;20050;-52
2023/09/26 09:01:21;;;;;;;20.08;5.97;;;19.60;96.10;;;;;;4249338;27;20058;-50
2023/09/26 09:03:26;;;;;;;12.48;4.88;;;19.60;95.90;;;;;;4249222;27;20116;-52
2023/09/26 09:05:29;;;;;;;8.87;4.00;;;19.60;96.00;;;;;;4249475;27;20051;-53
2023/09/26 09:07:31;;;;;;;9.68;4.10;;;19.60;95.90;;;;;;4248882;27;20066;-52
2023/09/26 09:09:34;;;;;;;14.05;4.82;;;19.60;96.00;;;;;;4248832;27;20047;-52
2023/09/26 09:11:36;;;;;;;12.07;4.03;;;19.60;95.90;;;;;;4248848;27;20072;-52
2023/09/26 09:13:40;;;;;;;14.88;4.53;;;19.60;95.90;;;;;;4248901;27;20050;-52
2023/09/26 09:15:42;;;;;;;16.57;4.87;;;19.60;95.80;;;;;;4248950;27;20054;-52
2023/09/26 09:17:45;;;;;;;13.18;4.07;;;19.60;96.10;;;;;;4248939;27;20054;-53
2023/09/26 09:19:51;;;;;;;15.98;5.25;;;19.60;96.10;;;;;;4248698;27;20043;-54
2023/09/26 09:22:14;;;;;;;10.82;4.30;;;19.60;96.20;;;;;;4248869;27;20043;-54
2023/09/26 09:24:16;;;;;;;19.48;4.63;;;19.60;95.90;;;;;;4248797;27;20476;-54
2023/09/26 09:26:20;;;;;;;12.45;4.40;;;19.60;95.80;;;;;;4248141;27;20043;-54
2023/09/26 09:28:22;;;;;;;14.02;4.80;;;19.60;96.00;;;;;;4248614;27;20042;-54
2023/09/26 09:30:25;;;;;;;22.80;4.88;;;19.70;95.90;;;;;;4248657;27;20043;-54
2023/09/26 09:32:27;;;;;;;18.15;5.30;;;19.70;95.90;;;;;;4248611;27;20152;-55
2023/09/26 09:34:31;;;;;;;13.77;4.70;;;19.80;95.60;;;;;;4248622;27;20173;-54
2023/09/26 09:36:37;;;;;;;18.93;4.73;;;19.80;95.70;;;;;;4248502;27;20038;-55
2023/09/26 09:38:39;;;;;;;13.27;5.07;;;19.90;95.90;;;;;;4248750;27;20055;-55
2023/09/26 09:40:41;;;;;;;11.85;5.00;;;19.90;95.90;;;;;;4248162;27;20504;-54
2023/09/26 09:42:44;;;;;;;11.98;4.25;;;20.00;95.90;;;;;;4230019;28;20109;-55
2023/09/26 09:44:48;;;;;;;12.18;4.70;;;19.90;95.60;;;;;;4248176;27;20043;-54
2023/09/26 09:46:55;;;;;;;13.18;5.07;;;19.90;95.60;;;;;;4248303;27;20055;-55
2023/09/26 09:49:00;;;;;;;16.80;4.93;;;20.00;95.60;;;;;;4248344;27;20115;-55
2023/09/26 09:51:09;;;;;;;15.68;4.78;;;20.00;95.50;;;;;;4247901;27;20442;-54
2023/09/26 09:53:18;;;;;;;15.85;4.63;;;20.00;95.40;;;;;;4248404;27;20047;-56
2023/09/26 09:55:23;;;;;;;10.32;4.80;;;20.00;95.40;;;;;;4248266;27;20049;-54
2023/09/26 09:57:28;;;;;;;12.60;5.30;;;20.00;95.30;;;;;;4248115;27;20047;-55
2023/09/26 09:59:33;;;;;;;;;;;20.00;95.20;;;;;;4247709;27;20111;-55
2023/09/26 10:01:36;;;;;;;14.93;4.95;;;20.10;95.50;;;;;;4248145;27;20327;-54
2023/09/26 10:03:38;;;;;;;10.35;5.38;;;20.00;97.30;;;;;;4247945;27;20043;-54
2023/09/26 10:05:43;;;;;;;14.57;5.53;;;20.10;99.00;;;;;;4248252;27;20047;-53
2023/09/26 10:07:46;;;;;;;9.50;4.55;;;20.20;98.00;;;;;;4247954;27;20104;-54
2023/09/26 10:09:51;;;;;;;17.48;5.28;;;20.20;98.30;;;;;;4247830;27;20495;-54
2023/09/26 10:11:54;;;;;;;11.43;4.80;;;20.20;97.10;;;;;;4248842;27;20332;-59
2023/09/26 10:13:57;;;;;;;9.50;4.63;;;20.20;98.10;;;;;;4248819;27;20478;-54
2023/09/26 10:16:14;;;;;;;16.10;5.45;;;20.20;98.80;;;;;;4248152;27;20417;-54
2023/09/26 10:18:19;;;;;;;13.43;4.82;;;20.20;97.90;;;;;;4248168;27;20377;-55
2023/09/26 10:20:28;;;;;;;10.75;5.03;;;20.30;98.20;;;;;;4247839;27;20117;-54
2023/09/26 10:23:09;;;;;;;16.35;5.30;;;20.40;98.00;;;;;;4248045;27;20047;-54
2023/09/26 10:25:18;;;;;;;19.13;5.55;;;20.40;96.10;;;;;;4247298;27;20081;-54
2023/09/26 10:27:38;;;;;;;13.05;5.28;;;20.40;96.00;;;;;;4247594;27;20454;-54
2023/09/26 10:30:01;;;;;;;16.23;6.22;;;20.40;95.80;;;;;;4247662;27;20047;-54
2023/09/26 10:32:05;;;;;;;11.80;5.03;;;20.40;96.20;;;;;;4247611;27;20043;-55
2023/09/26 10:34:07;;;;;;;;;;;20.40;96.10;;;;;;4248218;27;20089;-53
2023/09/26 10:36:12;;;;;;;17.17;5.25;;;20.50;95.40;;;;;;4247661;27;20372;-54
2023/09/26 10:38:18;;;;;;;11.18;4.75;;;20.60;96.70;;;;;;4247210;27;20138;-54